Temp: 4.5°C   Baro: 1017.3mb
  Wind: 0.0mph   Dir: NNW (342°)
  Rain: 0.0mm (0.0mm/hr)
  Solar: 0W/m2  Hum: 83%

Historic data

Bath Spa Weather Station Historical Data
Daily Summary for July 27, 2021 Units:  Metric    English   Both
Daily Weekly Monthly Yearly Custom
  High: Low: Average:
Temperature: 5.3 °C 1.2 °C 3.3 °C
Dew Point: 2.4 °C -2.8 °C 0 °C
Humidity: 90% 66.6% 76%
Wind Speed: 32.3km/h 5.1km/h 17.7km/h
Wind Gust: 67.6km/h - -
Wind- - WNW
Pressure: 1009.7 hPa 988.4 hPa -
Precipitation: 2.54 mm    
Historical Graphs
 
 
Tabular Data for July 27, 2021
Time Temperature Dew Point Pressure Wind Wind Speed Wind Gust Humidity Rainfall Rate (Hourly) solar
00:04 4.6 °C 2.4 °C 989.4 hPa WNW 16.1 km/h 27.4 km/h 83% 0 mm 0 W/m2
00:09 4.7 °C 2.4 °C 989.4 hPa NW 14.5 km/h 27.4 km/h 82.6% 0 mm 0 W/m2
00:14 4.8 °C 2.4 °C 989.1 hPa NW 16.9 km/h 33.8 km/h 81.6% 0 mm 0 W/m2
00:19 4.8 °C 2.3 °C 989.1 hPa NW 17.1 km/h 35.4 km/h 81% 0 mm 0 W/m2
00:24 4.9 °C 2.4 °C 989.1 hPa WNW 17.1 km/h 35.4 km/h 80.8% 0 mm 0 W/m2
00:29 5.1 °C 2.4 °C 989.1 hPa WNW 19.6 km/h 40.2 km/h 80% 0 mm 0 W/m2
00:34 5.2 °C 2.3 °C 988.7 hPa NW 17.1 km/h 40.2 km/h 78.4% 0.25 mm 0 W/m2
00:39 5.3 °C 2.2 °C 988.7 hPa NW 26.1 km/h 48.3 km/h 77.3% 0.25 mm 0 W/m2
00:44 5.3 °C 2.1 °C 988.7 hPa NW 20.1 km/h 43.5 km/h 77% 0.25 mm 0 W/m2
00:49 5.2 °C 2 °C 988.7 hPa NW 25.1 km/h 54.7 km/h 77% 0.25 mm 0 W/m2
00:54 5.2 °C 2.2 °C 988.7 hPa WNW 23.5 km/h 45.1 km/h 78% 0.25 mm 0 W/m2
00:59 4.9 °C 2.1 °C 988.7 hPa NW 21.6 km/h 54.7 km/h 79% 0.25 mm 0 W/m2
01:04 4.7 °C 2.1 °C 988.7 hPa NNW 32.3 km/h 54.7 km/h 80.6% 0.25 mm 0 W/m2
01:09 4.3 °C 2.1 °C 988.7 hPa NW 29 km/h 53.1 km/h 82% 0.25 mm 0 W/m2
01:14 4.2 °C 2.1 °C 988.7 hPa NW 28.3 km/h 41.8 km/h 83% 0.25 mm 0 W/m2
01:19 4.1 °C 2.1 °C 988.4 hPa NW 18.2 km/h 48.3 km/h 84% 0.25 mm 0 W/m2
01:24 3.9 °C 2 °C 988.4 hPa NW 25.4 km/h 56.3 km/h 84.4% 0.25 mm 0 W/m2
01:29 3.9 °C 1.9 °C 988.7 hPa NW 19.5 km/h 56.3 km/h 84.2% 0.25 mm 0 W/m2
01:34 4.1 °C 2.1 °C 988.4 hPa NNW 27 km/h 54.7 km/h 84% 0.25 mm 0 W/m2
01:39 4.1 °C 2.1 °C 988.4 hPa NW 29.3 km/h 51.5 km/h 84% 0.25 mm 0 W/m2
01:44 4 °C 2 °C 988.4 hPa NW 24 km/h 49.9 km/h 84% 0.25 mm 0 W/m2
01:49 3.9 °C 1.9 °C 988.4 hPa NW 24.8 km/h 53.1 km/h 84% 0.25 mm 0 W/m2
01:54 3.9 °C 1.9 °C 988.4 hPa NNW 29 km/h 53.1 km/h 84% 0.25 mm 0 W/m2
01:59 3.8 °C 1.9 °C 988.4 hPa NW 20.6 km/h 53.1 km/h 84.8% 0.25 mm 0 W/m2
02:04 3.7 °C 1.9 °C 988.7 hPa NNW 22.2 km/h 38.6 km/h 85% 0.25 mm 0 W/m2
02:09 3.7 °C 1.9 °C 988.7 hPa NNW 22.7 km/h 41.8 km/h 85% 0.25 mm 0 W/m2
02:14 3.8 °C 2 °C 988.7 hPa NW 26.7 km/h 45.1 km/h 85% 0.25 mm 0 W/m2
02:19 3.8 °C 2.1 °C 988.7 hPa NNW 21.2 km/h 38.6 km/h 85% 0.25 mm 0 W/m2
02:24 3.9 °C 2.1 °C 989.1 hPa NW 18.2 km/h 53.1 km/h 84.8% 0.25 mm 0 W/m2
02:29 4.1 °C 2.1 °C 989.1 hPa NNW 20.9 km/h 37 km/h 84% 0.25 mm 0 W/m2
02:34 4.2 °C 2.2 °C 989.1 hPa NNW 27.4 km/h 41.8 km/h 83.4% 0 mm 0 W/m2
02:39 4.3 °C 2.2 °C 989.1 hPa NNW 15.8 km/h 38.6 km/h 83% 0 mm 0 W/m2
02:44 4.3 °C 2.1 °C 989.4 hPa North 19.6 km/h 40.2 km/h 82.2% 0 mm 0 W/m2
02:49 4.4 °C 2.1 °C 989.4 hPa NNW 22.5 km/h 48.3 km/h 82% 0 mm 0 W/m2
02:54 4.6 °C 2.1 °C 989.4 hPa NNW 26.4 km/h 51.5 km/h 81% 0 mm 0 W/m2
02:59 4.6 °C 2.1 °C 989.4 hPa NNW 20.3 km/h 46.7 km/h 81% 0 mm 0 W/m2
03:04 4.6 °C 2.1 °C 989.7 hPa NNW 24.1 km/h 48.3 km/h 81% 0 mm 0 W/m2
03:09 4.4 °C 1.9 °C 989.7 hPa NNW 25.3 km/h 45.1 km/h 81% 0 mm 0 W/m2
03:14 4.4 °C 1.9 °C 990.1 hPa North 18.7 km/h 45.1 km/h 81% 0 mm 0 W/m2
03:19 4.4 °C 1.9 °C 989.7 hPa North 19.6 km/h 48.3 km/h 81% 0 mm 0 W/m2
03:24 4.3 °C 1.8 °C 990.1 hPa NNW 19.3 km/h 53.1 km/h 81% 0 mm 0 W/m2
03:29 4.4 °C 1.9 °C 990.1 hPa NNW 22.2 km/h 46.7 km/h 81% 0 mm 0 W/m2
03:34 4.4 °C 1.9 °C 990.4 hPa NNW 26.4 km/h 49.9 km/h 81% 0 mm 0 W/m2
03:39 4.5 °C 1.8 °C 990.4 hPa NNW 19.3 km/h 49.9 km/h 80% 0 mm 0 W/m2
03:44 4.4 °C 1.9 °C 990.7 hPa North 18 km/h 43.5 km/h 81% 0 mm 0 W/m2
03:49 4.3 °C 1.8 °C 990.7 hPa NW 22.9 km/h 38.6 km/h 81% 0 mm 0 W/m2
03:54 4.2 °C 1.8 °C 990.4 hPa NW 24.8 km/h 48.3 km/h 82% 0 mm 0 W/m2
03:59 4 °C 1.8 °C 990.4 hPa NNW 22.2 km/h 45.1 km/h 82.8% 0 mm 0 W/m2
04:04 3.9 °C 1.8 °C 990.7 hPa NNW 22.9 km/h 48.3 km/h 83% 0 mm 0 W/m2
04:09 3.9 °C 1.8 °C 990.7 hPa NNW 15.4 km/h 48.3 km/h 83.8% 0 mm 0 W/m2
04:14 3.8 °C 1.8 °C 990.7 hPa NNW 16.1 km/h 48.3 km/h 84% 0 mm 0 W/m2
04:19 3.8 °C 1.8 °C 991.1 hPa NW 19.3 km/h 33.8 km/h 84% 0 mm 0 W/m2
04:24 3.7 °C 1.8 °C 991.1 hPa North 20.8 km/h 37 km/h 84.6% 0 mm 0 W/m2
04:29 3.7 °C 1.9 °C 991.1 hPa NW 15.8 km/h 40.2 km/h 85% 0 mm 0 W/m2
04:34 3.6 °C 1.8 °C 991.4 hPa NNW 21.7 km/h 45.1 km/h 85% 0 mm 0 W/m2
04:39 3.7 °C 1.9 °C 991.1 hPa NW 18.7 km/h 37 km/h 85% 0 mm 0 W/m2
04:44 3.8 °C 1.9 °C 991.4 hPa NNW 22.2 km/h 33.8 km/h 84.8% 0 mm 0 W/m2
04:48 4 °C 1.9 °C 991.4 hPa NNW 21.4 km/h 59.5 km/h 83.8% 0 mm 0 W/m2
04:54 4.2 °C 1.9 °C 991.4 hPa NW 29 km/h 48.3 km/h 82.4% 0 mm 0 W/m2
04:59 4.2 °C 1.9 °C 991.4 hPa North 20.6 km/h 37 km/h 82% 0 mm 0 W/m2
05:04 4.2 °C 1.8 °C 991.8 hPa NNW 31.5 km/h 59.5 km/h 81.6% 0 mm 0 W/m2
05:09 4.2 °C 1.7 °C 991.8 hPa NNW 19.6 km/h 56.3 km/h 81% 0 mm 0 W/m2
05:14 4.2 °C 1.7 °C 992.1 hPa NNW 29.3 km/h 56.3 km/h 80.8% 0 mm 0 W/m2
05:19 4.3 °C 1.6 °C 992.1 hPa NNW 24.1 km/h 61.2 km/h 80% 0 mm 0 W/m2
05:24 4.3 °C 1.6 °C 992.4 hPa NW 15.4 km/h 45.1 km/h 79.6% 0 mm 0 W/m2
05:29 4.3 °C 1.5 °C 992.4 hPa North 24.1 km/h 49.9 km/h 79.2% 0 mm 0 W/m2
05:34 4.1 °C 1.4 °C 992.8 hPa North 22.9 km/h 57.9 km/h 80% 0 mm 0 W/m2
05:39 3.9 °C 1.3 °C 992.8 hPa North 26.4 km/h 53.1 km/h 80.4% 0 mm 0 W/m2
05:44 3.8 °C 1.3 °C 993.1 hPa North 19.6 km/h 57.9 km/h 81% 0 mm 0 W/m2
05:49 3.8 °C 1.3 °C 993.1 hPa NNW 19.6 km/h 40.2 km/h 81% 0 mm 0 W/m2
05:54 3.8 °C 1.3 °C 993.1 hPa NNW 21.6 km/h 49.9 km/h 80.4% 0 mm 0 W/m2
05:59 3.9 °C 1.3 °C 993.5 hPa North 28.6 km/h 37 km/h 80% 0 mm 0 W/m2
06:04 3.9 °C 1.3 °C 993.5 hPa NNW 19.6 km/h 45.1 km/h 80% 0 mm 0 W/m2
06:09 3.8 °C 1.3 °C 993.8 hPa North 14.2 km/h 48.3 km/h 80% 0 mm 0 W/m2
06:14 3.9 °C 1.1 °C 993.8 hPa NNW 20.3 km/h 48.3 km/h 79% 0 mm 0 W/m2
06:19 3.9 °C 1.1 °C 994.1 hPa North 24.1 km/h 46.7 km/h 79% 0 mm 0 W/m2
06:24 3.9 °C 1 °C 994.1 hPa North 24.1 km/h 59.5 km/h 78.6% 0 mm 0 W/m2
06:29 3.9 °C 0.9 °C 994.5 hPa North 19.3 km/h 43.5 km/h 78% 0 mm 0 W/m2
06:34 3.9 °C 0.9 °C 994.5 hPa North 15.8 km/h 43.5 km/h 78% 0 mm 0 W/m2
06:39 3.7 °C 0.9 °C 994.8 hPa NNW 23 km/h 59.5 km/h 78.8% 0 mm 0 W/m2
06:44 3.6 °C 0.8 °C 994.8 hPa NNW 16.7 km/h 40.2 km/h 79.2% 0 mm 0 W/m2
06:49 3.3 °C 0.7 °C 995.1 hPa North 22.5 km/h 67.6 km/h 80% 0 mm 0 W/m2
06:54 3.2 °C 0.7 °C 995.1 hPa North 16.7 km/h 38.6 km/h 81% 0 mm 0 W/m2
06:59 3.2 °C 0.7 °C 995.1 hPa North 24 km/h 46.7 km/h 81% 0 mm 0 W/m2
07:04 3.2 °C 0.6 °C 995.1 hPa North 14.2 km/h 33.8 km/h 80% 0 mm 0 W/m2
07:09 3.2 °C 0.6 °C 995.5 hPa NNW 19 km/h 38.6 km/h 80% 0 mm 0 W/m2
07:14 3.2 °C 0.6 °C 995.5 hPa NNE 20.3 km/h 46.7 km/h 80% 0 mm 0 W/m2
07:19 3.2 °C 0.6 °C 995.8 hPa NNW 20.3 km/h 57.9 km/h 80% 0 mm 0 W/m2
07:24 3.1 °C 0.6 °C 995.8 hPa NNW 19.3 km/h 41.8 km/h 81% 0 mm 0 W/m2
07:29 2.6 °C 0.6 °C 995.8 hPa NNW 20.3 km/h 45.1 km/h 83.2% 0 mm 0 W/m2
07:34 2.3 °C 0.5 °C 995.8 hPa NNW 17.4 km/h 45.1 km/h 84.6% 0 mm 0 W/m2
07:39 2.2 °C 0.5 °C 996.2 hPa NNW 8.5 km/h 35.4 km/h 85.6% 0 mm 0 W/m2
07:44 2.2 °C 0.6 °C 996.2 hPa NNW 16.4 km/h 32.2 km/h 86.2% 0 mm 0 W/m2
07:49 2.1 °C 0.7 °C 996.5 hPa North 17.4 km/h 40.2 km/h 86.8% 0.25 mm 0 W/m2
07:54 2.1 °C 0.7 °C 996.5 hPa NW 12.9 km/h 29 km/h 87% 0.25 mm 0 W/m2
07:59 2.2 °C 0.8 °C 996.5 hPa NNW 16.4 km/h 48.3 km/h 87% 0.25 mm 5 W/m2
08:04 2.6 °C 1 °C 996.8 hPa North 17.7 km/h 37 km/h 86.4% 0.25 mm 9 W/m2
08:09 2.8 °C 1.1 °C 996.8 hPa NNW 23.8 km/h 43.5 km/h 85.2% 0.25 mm 9 W/m2
08:14 2.9 °C 0.9 °C 996.8 hPa NNW 14.8 km/h 41.8 km/h 83.6% 0.25 mm 12 W/m2
08:19 2.9 °C 0.8 °C 997.2 hPa NNW 15.8 km/h 32.2 km/h 83% 0.25 mm 21 W/m2
08:24 2.8 °C 0.7 °C 997.2 hPa North 14.8 km/h 30.6 km/h 83% 0.25 mm 25 W/m2
08:29 2.9 °C 0.8 °C 997.5 hPa North 22.2 km/h 46.7 km/h 83.2% 0.25 mm 21 W/m2
08:34 2.9 °C 0.9 °C 997.5 hPa North 27.7 km/h 46.7 km/h 83.4% 0.25 mm 26 W/m2
08:39 3 °C 0.9 °C 997.9 hPa North 17.9 km/h 43.5 km/h 83% 0.25 mm 25 W/m2
08:44 2.9 °C 0.8 °C 997.9 hPa North 20.6 km/h 43.5 km/h 83% 0.25 mm 19 W/m2
08:49 3.1 °C 1 °C 997.9 hPa North 25.7 km/h 56.3 km/h 83% 0.25 mm 19 W/m2
08:54 3.3 °C 0.9 °C 998.2 hPa NNW 25.7 km/h 53.1 km/h 82% 0.25 mm 19 W/m2
08:59 3.3 °C 1 °C 998.2 hPa NNE 20.9 km/h 45.1 km/h 82% 0.25 mm 26 W/m2
09:04 3.2 °C 0.8 °C 998.5 hPa North 24 km/h 45.1 km/h 82% 0.25 mm 58 W/m2
09:09 2.8 °C 0.8 °C 998.9 hPa NNW 18.7 km/h 46.7 km/h 83.4% 0.25 mm 63 W/m2
09:14 2.7 °C 0.8 °C 998.9 hPa North 15.8 km/h 45.1 km/h 84.4% 0.25 mm 39 W/m2
09:19 2.6 °C 0.8 °C 999.2 hPa NW 16.7 km/h 45.1 km/h 85% 0.25 mm 35 W/m2
09:24 2.6 °C 0.9 °C 999.2 hPa North 23.5 km/h 46.7 km/h 85.6% 0.25 mm 39 W/m2
09:29 2.6 °C 1 °C 999.5 hPa NNW 18.5 km/h 40.2 km/h 86% 0.25 mm 23 W/m2
09:34 2.7 °C 1.1 °C 999.5 hPa NNW 23.3 km/h 46.7 km/h 86% 0.25 mm 58 W/m2
09:39 2.6 °C 0.9 °C 999.5 hPa NNW 28 km/h 49.9 km/h 86% 0.51 mm 69 W/m2
09:44 2 °C 0.4 °C 999.9 hPa NNW 25.4 km/h 41.8 km/h 86.2% 0.76 mm 63 W/m2
09:49 1.6 °C 0.2 °C 999.9 hPa North 17.9 km/h 38.6 km/h 87.3% 0.76 mm 44 W/m2
09:54 1.4 °C 0.1 °C 1000.2 hPa NNW 14.2 km/h 41.8 km/h 88% 1.02 mm 33 W/m2
09:59 1.4 °C 0.2 °C 1000.2 hPa North 17.4 km/h 38.6 km/h 88.8% 1.02 mm 33 W/m2
10:04 1.4 °C 0.3 °C 1000.2 hPa NNW 12.1 km/h 27.4 km/h 89% 1.27 mm 32 W/m2
10:09 1.5 °C 0.5 °C 1000.2 hPa NNW 13.8 km/h 30.6 km/h 90% 1.52 mm 33 W/m2
10:14 1.6 °C 0.6 °C 1000.6 hPa NNW 11.3 km/h 27.4 km/h 90% 1.52 mm 35 W/m2
10:19 1.7 °C 0.7 °C 1000.6 hPa North 14.2 km/h 27.4 km/h 90% 1.52 mm 28 W/m2
10:24 1.8 °C 0.8 °C 1000.6 hPa NNW 14.8 km/h 35.4 km/h 90% 1.52 mm 46 W/m2
10:29 2.1 °C 1.1 °C 1000.9 hPa NNW 13.5 km/h 35.4 km/h 90% 1.52 mm 69 W/m2
10:34 2.2 °C 1.2 °C 1000.9 hPa North 14.8 km/h 27.4 km/h 90% 1.52 mm 67 W/m2
10:39 2.4 °C 1.4 °C 1000.9 hPa NNW 13.5 km/h 32.2 km/h 89.8% 1.52 mm 67 W/m2
10:44 2.7 °C 1.6 °C 1000.9 hPa NNW 16.7 km/h 32.2 km/h 88.8% 1.52 mm 107 W/m2
10:49 3 °C 1.7 °C 1001.2 hPa North 17.9 km/h 41.8 km/h 87.8% 1.27 mm 98 W/m2
10:54 3.3 °C 1.7 °C 1001.2 hPa North 19.5 km/h 45.1 km/h 85.8% 1.02 mm 91 W/m2
10:59 3.5 °C 1.5 °C 1001.2 hPa North 18.3 km/h 43.5 km/h 83.8% 0.76 mm 98 W/m2
11:04 3.7 °C 1.6 °C 1001.2 hPa North 23.8 km/h 37 km/h 82.8% 0.51 mm 113 W/m2
11:09 3.8 °C 1.5 °C 1001.2 hPa NNW 15.8 km/h 35.4 km/h 81.8% 0.51 mm 132 W/m2
11:14 4 °C 1.4 °C 1001.2 hPa NNE 24.1 km/h 40.2 km/h 80.6% 0.51 mm 132 W/m2
11:19 4.2 °C 1.4 °C 1001.2 hPa NW 20.1 km/h 48.3 km/h 79.4% 0.51 mm 111 W/m2
11:24 4.3 °C 1.4 °C 1001.6 hPa North 13.8 km/h 41.8 km/h 79% 0.25 mm 90 W/m2
11:29 4.2 °C 1.3 °C 1001.6 hPa NNW 23.2 km/h 43.5 km/h 78.6% 0.25 mm 120 W/m2
11:34 4.4 °C 1.4 °C 1001.9 hPa North 17.4 km/h 51.5 km/h 78% 0.25 mm 111 W/m2
11:39 4.5 °C 1.3 °C 1001.9 hPa North 21.2 km/h 35.4 km/h 77% 0.25 mm 111 W/m2
11:44 4.6 °C 1.3 °C 1001.9 hPa NNE 28.3 km/h 46.7 km/h 76.6% 0 mm 165 W/m2
11:49 4.6 °C 1.1 °C 1001.9 hPa North 25.1 km/h 54.7 km/h 75.2% 0 mm 102 W/m2
11:54 4.6 °C 1.1 °C 1001.9 hPa North 13.2 km/h 45.1 km/h 75.2% 0 mm 102 W/m2
11:59 4.6 °C 1.1 °C 1001.9 hPa NNW 25.1 km/h 46.7 km/h 75.6% 0 mm 171 W/m2
12:04 4.7 °C 1.1 °C 1001.9 hPa North 24.3 km/h 38.6 km/h 75% 0 mm 116 W/m2
12:09 4.7 °C 1 °C 1002.3 hPa North 20.6 km/h 48.3 km/h 74.4% 0 mm 104 W/m2
12:14 4.7 °C 0.9 °C 1002.3 hPa NNW 24.1 km/h 53.1 km/h 73.8% 0 mm 118 W/m2
12:19 4.7 °C 0.8 °C 1002.3 hPa North 25.6 km/h 51.5 km/h 73.6% 0 mm 132 W/m2
12:24 4.7 °C 0.8 °C 1002.3 hPa NNE 24.5 km/h 43.5 km/h 73.4% 0 mm 239 W/m2
12:29 4.8 °C 0.9 °C 1002.6 hPa North 21.6 km/h 43.5 km/h 73.2% 0 mm 246 W/m2
12:34 4.9 °C 0.8 °C 1002.6 hPa NNE 24.3 km/h 48.3 km/h 72.3% 0 mm 246 W/m2
12:39 4.9 °C 0.7 °C 1002.3 hPa North 25.1 km/h 51.5 km/h 71.2% 0 mm 239 W/m2
12:44 5 °C 0.5 °C 1002.6 hPa North 24.1 km/h 43.5 km/h 70.2% 0 mm 237 W/m2
12:49 5.1 °C 0.6 °C 1002.3 hPa NNE 26.7 km/h 53.1 km/h 70.2% 0 mm 243 W/m2
12:54 5 °C 0.4 °C 1002.6 hPa NNE 24.1 km/h 64.4 km/h 69.6% 0 mm 236 W/m2
12:59 4.8 °C 0.2 °C 1002.9 hPa NNW 28.2 km/h 64.4 km/h 69.3% 0 mm 107 W/m2
13:04 4.7 °C 0.1 °C 1002.9 hPa North 20.1 km/h 43.5 km/h 69.4% 0 mm 65 W/m2
13:09 4.6 °C 0 °C 1002.9 hPa North 26.7 km/h 54.7 km/h 69.6% 0 mm 62 W/m2
13:14 4.5 °C 0 °C 1002.9 hPa NNW 20.6 km/h 37 km/h 70% 0 mm 70 W/m2
13:19 4.4 °C -0.1 °C 1003.3 hPa North 15.9 km/h 40.2 km/h 70% 0 mm 63 W/m2
13:24 4.4 °C -0.1 °C 1003.3 hPa North 24.8 km/h 46.7 km/h 70% 0 mm 195 W/m2
13:29 4.6 °C 0 °C 1003.3 hPa NNW 19.3 km/h 41.8 km/h 69.4% 0 mm 193 W/m2
13:34 4.7 °C 0 °C 1003.3 hPa North 21.6 km/h 57.9 km/h 69% 0 mm 155 W/m2
13:39 4.7 °C 0.1 °C 1003.3 hPa North 18.7 km/h 35.4 km/h 69.4% 0 mm 90 W/m2
13:44 4.6 °C 0.1 °C 1003.6 hPa North 18.5 km/h 45.1 km/h 69.8% 0 mm 88 W/m2
13:49 4.6 °C 0 °C 1003.6 hPa North 20.3 km/h 41.8 km/h 69.6% 0 mm 113 W/m2
13:54 4.6 °C -0.1 °C 1003.6 hPa North 24.3 km/h 57.9 km/h 69.5% 0 mm 109 W/m2
13:59 4.6 °C -0.1 °C 1003.9 hPa North 20.6 km/h 46.7 km/h 69.4% 0 mm 102 W/m2
14:04 4.5 °C -0.2 °C 1003.9 hPa NNW 20.8 km/h 38.6 km/h 69% 0 mm 88 W/m2
14:09 4.4 °C -0.3 °C 1003.9 hPa North 19 km/h 38.6 km/h 69% 0 mm 90 W/m2
14:14 4.4 °C -0.3 °C 1003.9 hPa NNE 18.7 km/h 43.5 km/h 69% 0 mm 90 W/m2
14:19 4.4 °C -0.3 °C 1003.9 hPa North 22.2 km/h 38.6 km/h 68.8% 0 mm 98 W/m2
14:24 4.4 °C -0.4 °C 1003.9 hPa NNE 22.7 km/h 48.3 km/h 68.6% 0 mm 65 W/m2
14:29 4.3 °C -0.4 °C 1003.9 hPa NNW 13.5 km/h 48.3 km/h 68.8% 0 mm 39 W/m2
14:34 4.3 °C -0.5 °C 1003.9 hPa NNW 21.6 km/h 43.5 km/h 68.6% 0 mm 67 W/m2
14:39 4.2 °C -0.4 °C 1004.3 hPa NNW 10 km/h 25.7 km/h 69% 0 mm 46 W/m2
14:44 4.2 °C -0.5 °C 1004.3 hPa North 22.9 km/h 41.8 km/h 69% 0 mm 35 W/m2
14:49 4.2 °C -0.5 °C 1004.3 hPa North 22.5 km/h 49.9 km/h 69% 0 mm 35 W/m2
14:54 4.2 °C -0.5 °C 1004.6 hPa NW 16.1 km/h 32.2 km/h 68.8% 0 mm 37 W/m2
14:59 4.2 °C -0.6 °C 1005 hPa North 15.4 km/h 37 km/h 68.4% 0 mm 23 W/m2
15:04 4.2 °C -0.7 °C 1005 hPa NNW 19.8 km/h 37 km/h 68% 0 mm 21 W/m2
15:09 4.2 °C -0.7 °C 1005 hPa NNW 21.1 km/h 40.2 km/h 68% 0 mm 23 W/m2
15:14 4.2 °C -0.8 °C 1005 hPa NNW 16.7 km/h 37 km/h 67.2% 0 mm 26 W/m2
15:19 4.2 °C -0.9 °C 1005.3 hPa North 18.2 km/h 37 km/h 67% 0 mm 32 W/m2
15:24 4.2 °C -0.7 °C 1005.3 hPa NNW 10.6 km/h 27.4 km/h 68% 0 mm 32 W/m2
15:29 4.1 °C -0.8 °C 1005.3 hPa North 17.1 km/h 40.2 km/h 68% 0 mm 26 W/m2
15:34 4.1 °C -0.7 °C 1005.3 hPa NNW 9.5 km/h 25.7 km/h 68.4% 0 mm 28 W/m2
15:39 4.1 °C -0.8 °C 1005.3 hPa North 13.4 km/h 25.7 km/h 68% 0 mm 14 W/m2
15:44 4 °C -0.9 °C 1005.3 hPa North 20.1 km/h 37 km/h 68% 0 mm 11 W/m2
15:49 4 °C -1 °C 1005.6 hPa North 16.1 km/h 41.8 km/h 67.6% 0 mm 9 W/m2
15:54 3.9 °C -1.1 °C 1005.6 hPa North 11.3 km/h 41.8 km/h 67.8% 0 mm 7 W/m2
15:59 3.9 °C -1.2 °C 1005.6 hPa NNW 12.2 km/h 27.4 km/h 67.2% 0 mm 7 W/m2
16:04 3.9 °C -1.2 °C 1005.6 hPa NNW 13.7 km/h 30.6 km/h 67.2% 0 mm 5 W/m2
16:09 3.9 °C -1.2 °C 1006 hPa NW 18 km/h 32.2 km/h 67% 0 mm 0 W/m2
16:14 3.9 °C -1.2 °C 1006 hPa NNW 22.5 km/h 37 km/h 67% 0 mm 0 W/m2
16:19 3.8 °C -1.2 °C 1006.3 hPa NNW 7.2 km/h 29 km/h 67.5% 0 mm 0 W/m2
16:24 3.8 °C -1.2 °C 1006.3 hPa NNW 13.5 km/h 30.6 km/h 67.2% 0 mm 0 W/m2
16:29 3.8 °C -1.3 °C 1006.3 hPa NNW 10.9 km/h 29 km/h 67% 0 mm 0 W/m2
16:34 3.8 °C -1.4 °C 1006.3 hPa NNW 18 km/h 37 km/h 66.6% 0 mm 0 W/m2
16:39 3.7 °C -1.4 °C 1006.3 hPa NW 20 km/h 33.8 km/h 66.8% 0 mm 0 W/m2
16:44 3.7 °C -1.4 °C 1006.7 hPa NNW 12.2 km/h 37 km/h 67% 0 mm 0 W/m2
16:49 3.7 °C -1.4 °C 1006.7 hPa NNW 16.1 km/h 37 km/h 67% 0 mm 0 W/m2
16:54 3.6 °C -1.5 °C 1006.7 hPa NNW 12.6 km/h 25.7 km/h 67% 0 mm 0 W/m2
16:59 3.6 °C -1.5 °C 1006.7 hPa NNW 15.1 km/h 43.5 km/h 67% 0 mm 0 W/m2
17:04 3.6 °C -1.6 °C 1006.7 hPa North 14.5 km/h 33.8 km/h 66.8% 0 mm 0 W/m2
17:09 3.4 °C -1.7 °C 1006.7 hPa NNW 11.3 km/h 30.6 km/h 67% 0 mm 0 W/m2
17:14 3.4 °C -1.7 °C 1006.7 hPa North 15.1 km/h 29 km/h 67% 0 mm 0 W/m2
17:19 3.3 °C -1.7 °C 1006.7 hPa NNW 14.8 km/h 30.6 km/h 67% 0 mm 0 W/m2
17:24 3.3 °C -1.8 °C 1007 hPa North 18 km/h 33.8 km/h 67% 0 mm 0 W/m2
17:29 3.3 °C -1.7 °C 1007 hPa NNW 13.5 km/h 24.1 km/h 67.2% 0 mm 0 W/m2
17:34 3.3 °C -1.7 °C 1007 hPa NNW 17.4 km/h 43.5 km/h 67.8% 0 mm 0 W/m2
17:39 3.3 °C -1.8 °C 1007 hPa NNW 15.6 km/h 32.2 km/h 67% 0 mm 0 W/m2
17:44 3.2 °C -1.8 °C 1007 hPa NNW 20 km/h 37 km/h 67.2% 0 mm 0 W/m2
17:49 3.2 °C -1.9 °C 1007 hPa NNW 15.4 km/h 37 km/h 67% 0 mm 0 W/m2
17:54 3.1 °C -2 °C 1007 hPa NNW 19.6 km/h 43.5 km/h 67% 0 mm 0 W/m2
17:59 3.1 °C -2 °C 1007 hPa NW 16.7 km/h 32.2 km/h 67% 0 mm 0 W/m2
18:04 3 °C -2 °C 1007 hPa NNW 12.9 km/h 33.8 km/h 67.4% 0 mm 0 W/m2
18:09 2.9 °C -2.1 °C 1007.3 hPa NNW 11.3 km/h 33.8 km/h 67.2% 0 mm 0 W/m2
18:14 2.8 °C -1.9 °C 1007.3 hPa NNW 15.8 km/h 30.6 km/h 68% 0 mm 0 W/m2
18:19 2.8 °C -2 °C 1007.3 hPa NNW 15.4 km/h 30.6 km/h 68% 0 mm 0 W/m2
18:24 2.8 °C -2.1 °C 1007.7 hPa NNW 17.5 km/h 37 km/h 67.6% 0 mm 0 W/m2
18:25 2.8 °C -2 °C 1007.3 hPa NNW 11.1 km/h 25.7 km/h 68% 0 mm 0 W/m2
18:34 2.8 °C -2.1 °C 1007.7 hPa NW 16.1 km/h 29 km/h 67.8% 0 mm 0 W/m2
18:39 2.8 °C -2 °C 1007.7 hPa NNW 12.2 km/h 27.4 km/h 68% 0 mm 0 W/m2
18:44 2.7 °C -2.1 °C 1008 hPa NNW 15.8 km/h 29 km/h 68% 0 mm 0 W/m2
18:49 2.7 °C -2.1 °C 1007.7 hPa NW 13 km/h 25.7 km/h 68.2% 0 mm 0 W/m2
18:54 2.7 °C -1.9 °C 1008 hPa NW 15.4 km/h 24.1 km/h 69% 0 mm 0 W/m2
18:59 2.6 °C -2 °C 1008 hPa NNW 11.6 km/h 30.6 km/h 69% 0 mm 0 W/m2
19:04 2.6 °C -2 °C 1008 hPa NNW 14.5 km/h 29 km/h 69% 0 mm 0 W/m2
19:09 2.6 °C -2 °C 1008 hPa NW 17.7 km/h 29 km/h 69% 0 mm 0 W/m2
19:14 2.6 °C -2.1 °C 1008.4 hPa NNW 10.8 km/h 27.4 km/h 69% 0 mm 0 W/m2
19:19 2.4 °C -2.2 °C 1008.4 hPa NNW 10.1 km/h 20.9 km/h 69% 0 mm 0 W/m2
19:24 2.4 °C -2.1 °C 1008.4 hPa NNW 12.2 km/h 29 km/h 69.6% 0 mm 0 W/m2
19:29 2.3 °C -2.2 °C 1008.4 hPa NW 11.1 km/h 22.5 km/h 69.4% 0 mm 0 W/m2
19:34 2.3 °C -2.1 °C 1008.4 hPa NW 12.6 km/h 25.7 km/h 70% 0 mm 0 W/m2
19:39 2.3 °C -2.1 °C 1008.4 hPa NW 13.2 km/h 24.1 km/h 70% 0 mm 0 W/m2
19:44 2.2 °C -2.2 °C 1008.4 hPa NNW 11.3 km/h 25.7 km/h 70% 0 mm 0 W/m2
19:49 2.2 °C -2.2 °C 1008.4 hPa NNW 15.4 km/h 25.7 km/h 70.2% 0 mm 0 W/m2
19:54 2.2 °C -2.1 °C 1008.4 hPa NW 12.1 km/h 25.7 km/h 70.8% 0 mm 0 W/m2
19:59 2.1 °C -2.1 °C 1008.4 hPa NNW 10.3 km/h 22.5 km/h 71% 0 mm 0 W/m2
20:04 2.1 °C -2.1 °C 1008.7 hPa NNW 9.3 km/h 17.7 km/h 71% 0 mm 0 W/m2
20:09 2.1 °C -2.1 °C 1008.7 hPa NW 11.4 km/h 24.1 km/h 71% 0 mm 0 W/m2
20:14 2.1 °C -2.2 °C 1008.7 hPa NW 12.6 km/h 24.1 km/h 70.4% 0 mm 0 W/m2
20:19 2.1 °C -2.3 °C 1008.7 hPa NW 8.7 km/h 22.5 km/h 70% 0 mm 0 W/m2
20:24 1.9 °C -2.3 °C 1008.7 hPa NW 8.4 km/h 22.5 km/h 70.8% 0 mm 0 W/m2
20:29 1.9 °C -2.3 °C 1008.7 hPa NW 11.6 km/h 22.5 km/h 71% 0 mm 0 W/m2
20:34 1.9 °C -2.3 °C 1008.7 hPa NNW 8.9 km/h 20.9 km/h 71% 0 mm 0 W/m2
20:39 1.9 °C -2.3 °C 1008.7 hPa NW 9.7 km/h 20.9 km/h 71% 0 mm 0 W/m2
20:44 1.9 °C -2.3 °C 1008.7 hPa NNW 7.2 km/h 20.9 km/h 71% 0 mm 0 W/m2
20:49 1.9 °C -2.3 °C 1009 hPa NW 6.4 km/h 20.9 km/h 71% 0 mm 0 W/m2
20:54 1.8 °C -2.4 °C 1009 hPa NW 8.7 km/h 19.3 km/h 71% 0 mm 0 W/m2
20:59 1.8 °C -2.4 °C 1009 hPa NW 14 km/h 22.5 km/h 71% 0 mm 0 W/m2
21:04 1.8 °C -2.3 °C 1009 hPa NW 7.7 km/h 27.4 km/h 71% 0 mm 0 W/m2
21:09 1.8 °C -2.4 °C 1009 hPa NW 10.9 km/h 24.1 km/h 71% 0 mm 0 W/m2
21:14 1.8 °C -2.4 °C 1009 hPa NW 12.9 km/h 22.5 km/h 71% 0 mm 0 W/m2
21:19 1.8 °C -2.3 °C 1009 hPa NW 12.6 km/h 27.4 km/h 71% 0 mm 0 W/m2
21:24 1.9 °C -2.3 °C 1009.4 hPa NW 12.2 km/h 22.5 km/h 71% 0 mm 0 W/m2
21:29 1.8 °C -2.3 °C 1009 hPa NW 10.9 km/h 22.5 km/h 71% 0 mm 0 W/m2
21:34 1.8 °C -2.4 °C 1009.4 hPa NW 12.2 km/h 25.7 km/h 71% 0 mm 0 W/m2
21:39 1.8 °C -2.4 °C 1009.4 hPa NW 9.7 km/h 19.3 km/h 71% 0 mm 0 W/m2
21:44 1.7 °C -2.5 °C 1009.4 hPa NNW 8.5 km/h 14.5 km/h 71% 0 mm 0 W/m2
21:49 1.7 °C -2.5 °C 1009.7 hPa NNW 11.9 km/h 22.5 km/h 71% 0 mm 0 W/m2
21:54 1.7 °C -2.4 °C 1009.4 hPa NNW 7.1 km/h 17.7 km/h 71.6% 0 mm 0 W/m2
21:59 1.7 °C -2.3 °C 1009.4 hPa NNW 7.1 km/h 19.3 km/h 71.8% 0 mm 0 W/m2
22:04 1.7 °C -2.3 °C 1009.4 hPa NW 8.5 km/h 22.5 km/h 71.8% 0 mm 0 W/m2
22:09 1.6 °C -2.4 °C 1009.4 hPa NW 13.8 km/h 24.1 km/h 72% 0 mm 0 W/m2
22:14 1.6 °C -2.4 °C 1009.4 hPa NW 11.3 km/h 24.1 km/h 72% 0 mm 0 W/m2
22:19 1.6 °C -2.4 °C 1009.4 hPa NNW 8.7 km/h 24.1 km/h 72% 0 mm 0 W/m2
22:24 1.6 °C -2.4 °C 1009.4 hPa NNW 5.5 km/h 14.5 km/h 72% 0 mm 0 W/m2
22:29 1.6 °C -2.4 °C 1009.4 hPa NNW 7.7 km/h 20.9 km/h 72% 0 mm 0 W/m2
22:34 1.6 °C -2.4 °C 1009.4 hPa NNW 14.3 km/h 25.7 km/h 71.6% 0 mm 0 W/m2
22:39 1.7 °C -2.5 °C 1009.4 hPa NNW 11.6 km/h 25.7 km/h 71.2% 0 mm 0 W/m2
22:44 1.6 °C -2.4 °C 1009.4 hPa NNW 10.8 km/h 20.9 km/h 71.8% 0 mm 0 W/m2
22:49 1.6 °C -2.5 °C 1009.4 hPa NNW 10.1 km/h 24.1 km/h 71.6% 0 mm 0 W/m2
22:53 1.6 °C -2.6 °C 1009 hPa NW 10.9 km/h 32.2 km/h 71% 0 mm 0 W/m2
22:59 1.6 °C -2.6 °C 1009 hPa NNW 11.7 km/h 25.7 km/h 71.2% 0 mm 0 W/m2
23:04 1.6 °C -2.4 °C 1009.4 hPa NNW 10 km/h 29 km/h 72% 0 mm 0 W/m2
23:09 1.6 °C -2.4 °C 1009.4 hPa NNW 12.6 km/h 25.7 km/h 72% 0 mm 0 W/m2
23:14 1.6 °C -2.4 °C 1009.4 hPa NNW 11.3 km/h 22.5 km/h 72% 0 mm 0 W/m2
23:19 1.4 °C -2.6 °C 1009.4 hPa NNW 10.6 km/h 20.9 km/h 72% 0 mm 0 W/m2
23:24 1.4 °C -2.6 °C 1009.4 hPa NNW 14.8 km/h 22.5 km/h 72% 0 mm 0 W/m2
23:29 1.4 °C -2.6 °C 1009.4 hPa NNW 11.6 km/h 20.9 km/h 72% 0 mm 0 W/m2
23:34 1.4 °C -2.6 °C 1009.7 hPa NW 12.2 km/h 24.1 km/h 72% 0 mm 0 W/m2
23:39 1.4 °C -2.6 °C 1009.4 hPa NW 7.1 km/h 17.7 km/h 72% 0 mm 0 W/m2
23:44 1.3 °C -2.7 °C 1009.7 hPa WNW 8.9 km/h 16.1 km/h 72% 0 mm 0 W/m2
23:49 1.3 °C -2.7 °C 1009.7 hPa NW 6.4 km/h 14.5 km/h 72% 0 mm 0 W/m2
23:54 1.2 °C -2.8 °C 1009.7 hPa WNW 7.9 km/h 14.5 km/h 72% 0 mm 0 W/m2
23:59 1.3 °C -2.7 °C 1009.7 hPa WNW 5.1 km/h 16.1 km/h 72% 0 mm 0 W/m2
Bath Spa Weather
Compliments of Weather Underground - 2 mb